Dauntless Aviation
Airports North America Canada
CYWG
YWG

Winnipeg / James Armstrong Richardson International Airport

Winnipeg, CANADA

Airport Info
Suggest Updated Information for this Airport

Location

Latitude / Longitude: 49°54'35"N / 97°14'23"W
  49°54.6'N / 97°14.394'W
  49.9100 / -97.2399

Nearby radio navigation aids

WG WINNIPEG NDB. 76.5° 4.5nm from WG to field.
YWG WINNIPEG VORTAC. 165.1° 1.1nm from YWG to field.
ZHT FORKS NDB. 317.6° 5.8nm from ZHT to field.
ZWG STONEY NDB. 181.8° 4.8nm from ZWG to field.
ZWN DOWNS NDB. 128.6° 4.7nm from ZWN to field.
ZWW BOINE NDB. 5.2° 4.9nm from ZWW to field.

Runway Information

Runway 13 /31

Dimensions: 8700 x 200 ft.
Surface: ASP
 
Runway 13
Runway 31
Latitude: 49.913028 49.895169
Longitude: -97.2523 -97.227864
Elevation: 783 ft. 783 ft.
Runway true heading: 140.5 320.5
 

Runway 18 /36

Dimensions: 11000 x 200 ft.
Surface: ASP
 
Runway 18
Runway 36
Latitude: 49.924917 49.895106
Longitude: -97.234967 -97.241878
Elevation: 782 ft. 782 ft.
Runway true heading: 190.5 10.5
 

Instrument Procedures

  Airport Diagram
  Parking Area

IAPs (Instrument Approach Procedures)

  Low Visibility Procedures
  Central De-Icing Facility
Satellite photo at:
Airport distance calculator
From:
Weather Reports

METAR

CYWG

CYWG 132000Z 21003KT 190V250 15SM OVC081 M10/M16 A3035 RMK AC8 SLP302
CXWN
4.4nm E
CXWN 132000Z AUTO 22002KT M10/M16 RMK AO1 SLP299 T10981161 58010
CWNK
39.4nm SW
CWNK 132000Z AUTO 14005KT M08/M12 RMK AO1 T10831116
CYPG
39.7nm SW
CYPG 132000Z 15006KT 15SM BKN066 M08/M13 A3032 RMK AC7 SLP293

TAF

CYWG
TAF CYWG 131738Z 1318/1418 VRB03KT P6SM SCT030 BKN060 FM132000 16008KT P6SM SCT030 BKN060 BKN120 FM140200 16010KT P6SM SCT015 BKN060 BKN120 TEMPO 1402/1408 BKN012 FM140800 16010KT P6SM BKN012 BKN040 TEMPO 1408/1418 4SM -SN BR OVC008 RMK NXT FCST BY 140000Z
CYPG
39.7nm SW
TAF CYPG 131730Z 1318/1406 VRB03KT P6SM FEW030 BKN080 FM132200 16008KT P6SM SCT020 OVC030 TEMPO 1322/1406 P6SM -SN OVC020 RMK NXT FCST BY 140000Z
Safelog

 

Dauntless Aviation

© 2007-2018 Dauntless Aviation, all rights reserved
Information provided via PilotNav comes from a variety of official and unofficial data sources. As errors are possible, do not use PilotNav for primary flight planning purposes. Verify any information that you receive via PilotNav with current and canonical charts and other official documents. The material in this database is subject to database copyrights held by Dauntless Aviation and may not be copied without the express permission of Dauntless Aviation - licenses for use of part of all of this data are available for purchase; enquire via the Dauntless Aviation helpdesk. A number of mechanisms and markers exist in the database to protect against and identify infringement / copyright. Automated queries against this website are stictly prohibited, and all activity is logged and analyzed.